Time;durP1;ratioP1;P1;durP2;ratioP2;P2;SDS_P1;SDS_P2;PMS_P1;PMS_P2;Temp;Humidity;BMP_temperature;BMP_pressure;BME280_temperature;BME280_humidity;BME280_pressure;Samples;Min_cycle;Max_cycle;Signal;HPM_P1;HPM_P2
2022/01/24 00:01:04;;;;;;;2.72;0.50;;;23.70;99.90;;;;;;5031935;28;20191;-85
2022/01/24 00:03:34;;;;;;;1.65;0.50;;;23.70;99.90;;;;;;5034767;28;20535;-81
2022/01/24 00:06:09;;;;;;;1.38;0.50;;;23.70;99.90;;;;;;5029767;28;20190;-81
2022/01/24 00:08:41;;;;;;;4.15;0.50;;;23.70;99.90;;;;;;5032048;28;20225;-84
2022/01/24 00:11:16;;;;;;;2.15;0.75;;;23.60;99.90;;;;;;5033274;28;20662;-82
2022/01/24 00:17:02;;;;;;;4.88;0.70;;;23.60;99.90;;;;;;5030876;28;20286;-88
2022/01/24 00:27:56;;;;;;;1.98;0.50;;;23.50;99.90;;;;;;5034115;28;20185;-87
2022/01/24 00:30:27;;;;;;;3.90;0.50;;;23.60;99.90;;;;;;5034037;28;20225;-81
2022/01/24 00:32:57;;;;;;;2.63;0.80;;;23.50;99.90;;;;;;5032284;28;20226;-81
2022/01/24 00:35:28;;;;;;;3.58;0.70;;;23.60;99.90;;;;;;5032712;28;20792;-85
2022/01/24 00:38:01;;;;;;;1.77;0.68;;;23.60;99.90;;;;;;5034451;28;20268;-82
2022/01/24 00:40:38;;;;;;;2.58;0.55;;;23.60;99.90;;;;;;5034467;28;20529;-86
2022/01/24 00:43:17;;;;;;;4.15;0.68;;;23.60;99.90;;;;;;5033568;28;20213;-86
2022/01/24 00:45:58;;;;;;;2.50;0.60;;;23.60;99.90;;;;;;5031608;28;20193;-86
2022/01/24 00:48:51;;;;;;;2.08;0.68;;;23.60;99.90;;;;;;5032814;28;20182;-86
2022/01/24 00:56:53;;;;;;;1.88;0.50;;;23.60;99.90;;;;;;5035402;28;20237;-83
2022/01/24 00:59:24;;;;;;;2.17;0.50;;;23.60;99.90;;;;;;5033887;28;20195;-85
2022/01/24 01:01:54;;;;;;;2.60;0.70;;;23.60;99.90;;;;;;5034386;28;20193;-87
2022/01/24 01:04:32;;;;;;;2.35;0.47;;;23.70;99.90;;;;;;5034842;28;20552;-85
2022/01/24 01:07:06;;;;;;;3.42;0.50;;;23.70;99.90;;;;;;5035143;28;20191;-86
2022/01/24 01:18:14;;;;;;;3.10;0.50;;;24.00;99.90;;;;;;5029504;28;20193;-83
2022/01/24 01:23:30;;;;;;;1.83;0.50;;;24.10;99.90;;;;;;5033546;28;20209;-86
2022/01/24 01:26:05;;;;;;;1.45;0.40;;;24.20;99.90;;;;;;5034325;28;20631;-85
2022/01/24 01:28:41;;;;;;;2.20;0.30;;;24.30;99.90;;;;;;5026770;28;20691;-86
2022/01/24 01:31:22;;;;;;;2.03;0.50;;;24.40;99.90;;;;;;5033187;28;20269;-82
2022/01/24 01:34:01;;;;;;;4.63;0.70;;;24.50;99.90;;;;;;5033963;28;20217;-85
2022/01/24 01:37:08;;;;;;;3.70;0.60;;;24.60;99.90;;;;;;5036163;28;20190;-83
2022/01/24 01:40:05;;;;;;;3.58;0.60;;;24.60;99.90;;;;;;5030929;28;20202;-85
2022/01/24 01:54:01;;;;;;;2.85;0.65;;;24.00;99.90;;;;;;5033536;28;20233;-81
2022/01/24 01:56:32;;;;;;;1.83;0.70;;;24.00;99.90;;;;;;5031852;28;20722;-86
2022/01/24 01:59:03;;;;;;;2.53;0.73;;;23.90;99.90;;;;;;5023344;28;20240;-85
2022/01/24 02:01:35;;;;;;;3.15;0.73;;;24.00;99.90;;;;;;5029699;28;20205;-81
2022/01/24 02:04:06;;;;;;;3.78;0.80;;;23.90;99.90;;;;;;5026722;28;20195;-84
2022/01/24 02:06:38;;;;;;;3.20;0.93;;;23.90;99.90;;;;;;5026299;28;20263;-85
2022/01/24 02:09:13;;;;;;;3.00;0.80;;;23.90;99.90;;;;;;5032525;28;20210;-86
2022/01/24 02:11:44;;;;;;;4.03;0.80;;;23.80;99.90;;;;;;5032702;28;20247;-84
2022/01/24 02:14:18;;;;;;;4.25;0.73;;;23.80;99.90;;;;;;5031976;28;20699;-86
2022/01/24 02:16:55;;;;;;;2.70;0.68;;;23.80;99.90;;;;;;5032232;28;20671;-82
2022/01/24 02:19:34;;;;;;;2.65;0.60;;;23.80;99.90;;;;;;5032374;28;20205;-86
2022/01/24 02:22:38;;;;;;;2.45;0.90;;;23.80;99.90;;;;;;5032426;28;20373;-84
2022/01/24 02:25:05;;;;;;;2.42;0.77;;;23.90;99.90;;;;;;5025464;28;20221;-84
2022/01/24 02:27:45;;;;;;;2.10;0.75;;;23.90;99.90;;;;;;5032654;28;20213;-83
2022/01/24 02:30:27;;;;;;;2.70;0.70;;;24.00;99.90;;;;;;5031963;28;20218;-83
2022/01/24 02:32:58;;;;;;;2.33;0.80;;;24.00;99.90;;;;;;5030670;28;20769;-85
2022/01/24 02:35:28;;;;;;;2.03;0.68;;;24.10;99.90;;;;;;5032244;28;20554;-82
2022/01/24 02:38:04;;;;;;;3.55;0.80;;;24.10;99.90;;;;;;5023015;28;20195;-83
2022/01/24 02:40:36;;;;;;;4.50;0.75;;;24.10;99.90;;;;;;5030981;28;20631;-82
2022/01/24 02:48:23;;;;;;;3.28;0.70;;;24.20;99.90;;;;;;5007894;28;20217;-84
2022/01/24 02:48:57;;;;;;;5.53;0.82;;;24.30;99.90;;;;;;5024014;28;20191;-82
2022/01/24 02:51:45;;;;;;;2.75;0.80;;;24.40;99.90;;;;;;5031268;28;20736;-84
2022/01/24 02:54:27;;;;;;;2.00;0.57;;;24.60;99.90;;;;;;5030832;28;20217;-86
2022/01/24 02:56:58;;;;;;;3.33;0.60;;;24.70;99.90;;;;;;5031536;28;20221;-83
2022/01/24 02:59:28;;;;;;;2.80;0.60;;;24.70;99.90;;;;;;5030032;28;20202;-84
2022/01/24 03:01:59;;;;;;;1.42;0.50;;;24.90;99.90;;;;;;5031542;28;20194;-82
2022/01/24 03:04:30;;;;;;;3.33;0.63;;;25.10;99.90;;;;;;5028160;28;20190;-83
2022/01/24 03:07:01;;;;;;;3.38;0.73;;;25.20;99.90;;;;;;5030414;28;20574;-83
2022/01/24 03:09:34;;;;;;;2.70;0.52;;;25.10;99.90;;;;;;5030060;28;20638;-82
2022/01/24 03:12:08;;;;;;;2.92;0.70;;;25.00;99.90;;;;;;5031389;28;20202;-82
2022/01/24 03:14:42;;;;;;;4.18;0.90;;;25.00;99.90;;;;;;5027846;28;20248;-82
2022/01/24 03:17:13;;;;;;;6.20;0.70;;;25.00;99.90;;;;;;5030398;28;20190;-85
2022/01/24 03:19:43;;;;;;;4.07;0.80;;;25.20;99.90;;;;;;5029995;28;20197;-84
2022/01/24 03:22:14;;;;;;;3.95;0.70;;;25.30;99.90;;;;;;5032018;28;20236;-84
2022/01/24 03:24:48;;;;;;;3.35;0.60;;;25.30;99.90;;;;;;5032318;28;20755;-84
2022/01/24 03:27:19;;;;;;;2.35;0.60;;;25.40;99.90;;;;;;5025124;28;20190;-85
2022/01/24 03:29:50;;;;;;;4.20;0.60;;;25.40;99.90;;;;;;5035758;28;20210;-84
2022/01/24 03:32:21;;;;;;;4.57;0.52;;;25.50;99.90;;;;;;5025328;28;20268;-84
2022/01/24 03:34:51;;;;;;;3.45;0.60;;;25.50;99.90;;;;;;5040397;28;20193;-82
2022/01/24 03:37:22;;;;;;;3.22;0.60;;;25.40;99.90;;;;;;5032238;28;20670;-82
2022/01/24 03:39:54;;;;;;;3.85;0.65;;;25.30;99.90;;;;;;5030130;28;20217;-83
2022/01/24 03:42:25;;;;;;;1.63;0.75;;;25.20;99.90;;;;;;5024458;28;20197;-85
2022/01/24 03:44:58;;;;;;;3.28;0.80;;;25.20;99.90;;;;;;5037359;28;20189;-85
2022/01/24 03:47:43;;;;;;;2.20;0.50;;;25.20;99.90;;;;;;5035319;28;20205;-83
2022/01/24 03:50:17;;;;;;;3.53;0.68;;;25.20;99.90;;;;;;5035470;28;20218;-84
2022/01/24 03:52:48;;;;;;;3.67;0.60;;;25.10;99.90;;;;;;5033959;28;20191;-83
2022/01/24 03:55:20;;;;;;;2.03;0.77;;;25.00;99.90;;;;;;5034542;28;20198;-82
2022/01/24 03:57:51;;;;;;;2.33;0.88;;;25.00;99.90;;;;;;5033958;28;20193;-86
2022/01/24 04:00:22;;;;;;;2.30;0.60;;;24.90;99.90;;;;;;5031634;28;20190;-83
2022/01/24 04:02:52;;;;;;;3.15;0.65;;;24.80;99.90;;;;;;5033837;28;20202;-84
2022/01/24 04:05:23;;;;;;;3.53;0.70;;;24.80;99.90;;;;;;5031986;28;20195;-82
2022/01/24 04:07:54;;;;;;;2.40;0.68;;;24.80;99.90;;;;;;5032175;28;20241;-85
2022/01/24 04:10:26;;;;;;;3.25;0.77;;;24.80;99.90;;;;;;5031726;28;20209;-84
2022/01/24 04:13:07;;;;;;;3.58;0.55;;;24.80;99.90;;;;;;5035461;28;20190;-84
2022/01/24 04:15:47;;;;;;;2.22;0.50;;;24.80;99.90;;;;;;5036172;28;20273;-84
2022/01/24 04:18:35;;;;;;;1.67;0.50;;;24.80;99.90;;;;;;5034010;28;20649;-83
2022/01/24 04:21:23;;;;;;;3.90;0.52;;;24.80;99.90;;;;;;5033004;28;20210;-82
2022/01/24 04:23:59;;;;;;;2.33;0.38;;;24.80;99.90;;;;;;5034128;28;20614;-84
2022/01/24 04:26:32;;;;;;;0.98;0.50;;;25.00;99.90;;;;;;5035136;28;20230;-84
2022/01/24 04:29:03;;;;;;;0.98;0.30;;;25.00;99.90;;;;;;5035091;28;20190;-83
2022/01/24 04:31:34;;;;;;;2.00;0.45;;;25.20;99.90;;;;;;5027199;28;20225;-84
2022/01/24 04:34:05;;;;;;;1.77;0.52;;;25.20;99.90;;;;;;5038683;28;20244;-83
2022/01/24 04:36:36;;;;;;;2.03;0.40;;;25.10;99.90;;;;;;5027499;28;20201;-84
2022/01/24 04:39:07;;;;;;;2.90;0.50;;;25.20;99.90;;;;;;5024528;28;20210;-85
2022/01/24 04:41:43;;;;;;;2.13;0.47;;;25.20;99.90;;;;;;5025751;28;20205;-85
2022/01/24 04:44:30;;;;;;;2.00;0.77;;;25.20;99.90;;;;;;5034548;28;20206;-85
2022/01/24 04:47:13;;;;;;;2.15;0.40;;;25.30;99.90;;;;;;5035354;28;20191;-85
2022/01/24 04:52:38;;;;;;;3.22;0.77;;;25.10;99.90;;;;;;5034652;28;20197;-85
2022/01/24 04:55:09;;;;;;;3.00;0.50;;;25.10;99.90;;;;;;5034092;28;20264;-86
2022/01/24 04:57:41;;;;;;;1.60;0.35;;;25.20;99.90;;;;;;5033248;28;20186;-85
2022/01/24 05:00:14;;;;;;;4.63;0.70;;;25.30;99.90;;;;;;5034625;28;20213;-84
2022/01/24 05:02:45;;;;;;;4.38;0.50;;;25.40;99.90;;;;;;5027394;28;20197;-85
2022/01/24 05:05:19;;;;;;;3.17;0.50;;;25.30;99.90;;;;;;5032398;28;20206;-85
2022/01/24 05:07:51;;;;;;;3.35;0.50;;;25.30;99.90;;;;;;5031031;28;20196;-85
2022/01/24 05:10:29;;;;;;;1.60;0.50;;;25.40;99.90;;;;;;5033710;28;20222;-84
2022/01/24 05:24:07;;;;;;;2.45;0.50;;;24.90;99.90;;;;;;5033506;28;20222;-84
2022/01/24 05:26:38;;;;;;;2.45;0.50;;;24.80;99.90;;;;;;5033808;28;20190;-85
2022/01/24 05:29:10;;;;;;;4.63;0.60;;;24.80;99.90;;;;;;5034003;28;20194;-85
2022/01/24 05:31:41;;;;;;;2.22;0.52;;;24.80;99.90;;;;;;5032989;28;20292;-83
2022/01/24 05:34:12;;;;;;;2.63;0.50;;;24.80;99.90;;;;;;5034456;28;20186;-84
2022/01/24 05:36:43;;;;;;;2.70;0.73;;;24.80;99.90;;;;;;5034412;28;20537;-84
2022/01/24 05:39:14;;;;;;;6.28;0.80;;;24.90;99.90;;;;;;5031918;28;20190;-83
2022/01/24 05:41:44;;;;;;;5.20;0.68;;;24.80;99.90;;;;;;5032034;28;20190;-82
2022/01/24 05:44:17;;;;;;;3.33;0.40;;;24.90;99.90;;;;;;5033448;28;20244;-84
2022/01/24 05:46:50;;;;;;;2.53;0.50;;;24.80;99.90;;;;;;5033495;28;20198;-82
2022/01/24 05:49:22;;;;;;;3.47;0.50;;;24.70;99.90;;;;;;5031915;28;20202;-85
2022/01/24 05:51:53;;;;;;;3.50;0.70;;;24.80;99.90;;;;;;5032693;28;20218;-83
2022/01/24 05:54:23;;;;;;;4.68;0.70;;;24.80;99.90;;;;;;5031927;28;20195;-85
2022/01/24 05:56:54;;;;;;;3.50;0.65;;;24.80;99.90;;;;;;5032744;28;20662;-85
2022/01/24 05:59:27;;;;;;;2.63;0.80;;;24.80;99.90;;;;;;5033174;28;20264;-85
2022/01/24 06:01:57;;;;;;;3.78;0.82;;;24.70;99.90;;;;;;5033234;28;20190;-84
2022/01/24 06:04:28;;;;;;;3.50;0.93;;;24.70;99.90;;;;;;5033385;28;20190;-84
2022/01/24 06:06:59;;;;;;;5.15;0.90;;;24.60;99.90;;;;;;5033189;28;20244;-85
2022/01/24 06:09:29;;;;;;;5.85;0.80;;;24.60;99.90;;;;;;5031928;28;20205;-84
2022/01/24 06:12:00;;;;;;;4.43;0.90;;;24.60;99.90;;;;;;5025352;28;20214;-85
2022/01/24 06:14:32;;;;;;;5.18;0.80;;;24.50;99.90;;;;;;5033125;28;20190;-84
2022/01/24 06:17:03;;;;;;;6.38;0.82;;;24.30;99.90;;;;;;5025513;28;20557;-84
2022/01/24 06:19:37;;;;;;;5.20;0.80;;;24.30;99.90;;;;;;5032913;28;20194;-84
2022/01/24 06:22:08;;;;;;;4.07;0.90;;;24.30;99.90;;;;;;5033136;28;20191;-85
2022/01/24 06:24:39;;;;;;;5.43;1.00;;;24.30;99.90;;;;;;5037810;28;20234;-83
2022/01/24 06:27:09;;;;;;;4.10;1.20;;;24.30;99.90;;;;;;5025543;28;20193;-85
2022/01/24 06:29:45;;;;;;;5.68;1.30;;;24.30;99.90;;;;;;5032555;28;20281;-84
2022/01/24 06:32:15;;;;;;;4.50;0.90;;;24.40;99.90;;;;;;5026223;28;20209;-84
2022/01/24 06:34:46;;;;;;;4.28;1.05;;;24.40;99.90;;;;;;5032044;28;20252;-84
2022/01/24 06:37:17;;;;;;;4.88;1.13;;;24.30;99.90;;;;;;5032752;28;20200;-85
2022/01/24 06:39:47;;;;;;;5.18;1.30;;;24.30;99.90;;;;;;5034172;28;20556;-84
2022/01/24 06:42:23;;;;;;;3.85;0.85;;;24.20;99.90;;;;;;5032450;28;20217;-85
2022/01/24 06:44:56;;;;;;;3.88;0.80;;;24.10;99.90;;;;;;5033500;28;20197;-85
2022/01/24 06:47:27;;;;;;;4.32;0.70;;;24.00;99.90;;;;;;5033606;28;20643;-86
2022/01/24 06:49:58;;;;;;;5.45;0.88;;;23.90;99.90;;;;;;5031694;28;20591;-85
2022/01/24 06:52:28;;;;;;;4.15;0.80;;;23.80;99.90;;;;;;5032252;28;20683;-85
2022/01/24 06:54:59;;;;;;;4.13;0.90;;;23.80;99.90;;;;;;5032381;28;20552;-85
2022/01/24 06:57:30;;;;;;;6.75;1.20;;;23.70;99.90;;;;;;5035790;28;20185;-83
2022/01/24 07:00:02;;;;;;;5.40;0.85;;;23.60;99.90;;;;;;5033570;28;20246;-84
2022/01/24 07:02:33;;;;;;;3.65;0.88;;;23.60;99.90;;;;;;5032737;28;20190;-83
2022/01/24 07:05:03;;;;;;;4.72;0.90;;;23.70;99.90;;;;;;5032702;28;20190;-84
2022/01/24 07:07:35;;;;;;;2.38;0.90;;;23.80;99.90;;;;;;5033062;28;20248;-85
2022/01/24 07:10:09;;;;;;;2.35;0.70;;;23.70;99.90;;;;;;5036839;28;20218;-85
2022/01/24 07:12:40;;;;;;;3.17;0.82;;;23.70;99.90;;;;;;5031887;28;20211;-84
2022/01/24 07:15:16;;;;;;;4.18;0.93;;;23.60;99.90;;;;;;5035965;28;20189;-85
2022/01/24 07:18:16;;;;;;;3.50;0.90;;;23.50;99.90;;;;;;5034581;28;20608;-85
2022/01/24 07:20:47;;;;;;;3.85;0.93;;;23.40;99.90;;;;;;5037129;28;20225;-86
2022/01/24 07:23:18;;;;;;;2.45;0.70;;;23.20;99.90;;;;;;5040466;28;20198;-84
2022/01/24 07:25:48;;;;;;;4.97;0.90;;;23.10;99.90;;;;;;5040144;28;20222;-86
2022/01/24 07:28:19;;;;;;;4.80;1.05;;;23.10;99.90;;;;;;5036308;28;20253;-85
2022/01/24 07:30:52;;;;;;;5.72;0.93;;;23.00;99.90;;;;;;5037671;28;20226;-85
2022/01/24 07:33:22;;;;;;;3.83;0.80;;;22.90;99.90;;;;;;5040550;28;20189;-84
2022/01/24 07:35:53;;;;;;;6.43;1.38;;;22.90;99.90;;;;;;5038762;28;20186;-85
2022/01/24 07:38:24;;;;;;;5.30;1.05;;;22.90;99.90;;;;;;5041023;28;20558;-85
2022/01/24 07:40:55;;;;;;;5.00;1.10;;;22.90;99.90;;;;;;5037444;28;20190;-84
2022/01/24 07:43:26;;;;;;;6.18;1.30;;;22.90;99.90;;;;;;5029431;28;20182;-85
2022/01/24 07:45:58;;;;;;;3.55;1.20;;;22.90;99.90;;;;;;5038567;28;20187;-86
2022/01/24 07:48:29;;;;;;;2.80;1.10;;;22.90;99.90;;;;;;5044367;28;20209;-87
2022/01/24 07:51:00;;;;;;;4.88;1.20;;;22.90;99.90;;;;;;5036376;28;20214;-85
2022/01/24 07:53:31;;;;;;;3.15;1.15;;;22.80;99.90;;;;;;5031356;28;20193;-85
2022/01/24 07:56:01;;;;;;;4.50;1.17;;;22.90;99.90;;;;;;5041663;28;20190;-85
2022/01/24 07:58:32;;;;;;;7.10;1.25;;;22.90;99.90;;;;;;5041418;28;20182;-85
2022/01/24 08:01:05;;;;;;;4.93;1.23;;;22.80;99.90;;;;;;5035736;28;20186;-85
2022/01/24 08:03:36;;;;;;;4.55;0.88;;;22.80;99.90;;;;;;5032017;28;20206;-86
2022/01/24 08:06:06;;;;;;;4.05;1.02;;;22.80;99.90;;;;;;5033454;28;20198;-85
2022/01/24 08:08:37;;;;;;;4.88;1.10;;;22.80;99.90;;;;;;5023037;28;20256;-82
2022/01/24 08:11:08;;;;;;;5.65;1.10;;;22.70;99.90;;;;;;5026402;28;20217;-83
2022/01/24 08:13:39;;;;;;;5.93;1.48;;;22.80;99.90;;;;;;5024913;28;20208;-85
2022/01/24 08:16:11;;;;;;;5.30;1.10;;;22.70;99.90;;;;;;5033520;28;20666;-85
2022/01/24 08:18:42;;;;;;;4.57;1.40;;;22.70;99.90;;;;;;5035133;28;20194;-84
2022/01/24 08:21:13;;;;;;;3.88;1.02;;;22.70;99.90;;;;;;5035448;28;20198;-84
2022/01/24 08:23:43;;;;;;;6.82;1.20;;;22.60;99.90;;;;;;5035151;28;20197;-85
2022/01/24 08:26:14;;;;;;;4.43;1.10;;;22.60;99.90;;;;;;5036204;28;20190;-85
2022/01/24 08:28:45;;;;;;;4.63;0.98;;;22.60;99.90;;;;;;5035905;28;20248;-85
2022/01/24 08:31:18;;;;;;;7.03;1.15;;;22.60;99.90;;;;;;5032610;28;20218;-84
2022/01/24 08:33:49;;;;;;;5.82;1.10;;;22.50;99.90;;;;;;5037234;28;20555;-84
2022/01/24 08:36:19;;;;;;;3.83;1.08;;;22.50;99.90;;;;;;5042540;28;20194;-84
2022/01/24 08:38:51;;;;;;;3.75;1.02;;;22.50;99.90;;;;;;5037556;28;20186;-85
2022/01/24 08:41:27;;;;;;;4.53;1.30;;;22.50;99.90;;;;;;5040871;28;20538;-85
2022/01/24 08:44:11;;;;;;;5.53;1.13;;;22.40;99.90;;;;;;5028952;28;20547;-86
2022/01/24 08:46:45;;;;;;;3.13;1.02;;;22.40;99.90;;;;;;5043632;28;20193;-85
2022/01/24 08:49:16;;;;;;;6.22;1.20;;;22.40;99.90;;;;;;5036113;28;20194;-85
2022/01/24 08:51:47;;;;;;;8.43;1.10;;;22.30;99.90;;;;;;5035438;28;20206;-86
2022/01/24 08:54:17;;;;;;;5.55;1.10;;;22.30;99.90;;;;;;5035228;28;20240;-84
2022/01/24 08:56:48;;;;;;;4.30;0.95;;;22.30;99.90;;;;;;5041530;28;20249;-85
2022/01/24 08:59:19;;;;;;;8.88;1.00;;;22.20;99.90;;;;;;5041744;28;20217;-85
2022/01/24 09:01:51;;;;;;;3.78;1.00;;;22.20;99.90;;;;;;5035537;28;20190;-87
2022/01/24 09:04:22;;;;;;;5.05;1.17;;;22.10;99.90;;;;;;5039028;28;20197;-83
2022/01/24 09:06:53;;;;;;;4.72;1.30;;;22.10;99.90;;;;;;5033793;28;20197;-85
2022/01/24 09:09:24;;;;;;;5.75;1.20;;;22.10;99.90;;;;;;5033665;28;20248;-87
2022/01/24 09:11:55;;;;;;;6.10;1.50;;;22.10;99.90;;;;;;5034388;28;20581;-85
2022/01/24 09:14:27;;;;;;;5.38;1.70;;;22.00;99.90;;;;;;5034144;28;20704;-86
2022/01/24 09:17:00;;;;;;;5.65;1.30;;;22.00;99.90;;;;;;5033870;28;20195;-86
2022/01/24 09:19:31;;;;;;;4.78;1.40;;;22.00;99.90;;;;;;5031520;28;20658;-86
2022/01/24 09:22:01;;;;;;;8.90;1.38;;;22.00;99.90;;;;;;5034132;28;20193;-83
2022/01/24 09:24:32;;;;;;;8.20;1.55;;;21.90;99.90;;;;;;5035456;28;20303;-86
2022/01/24 09:27:03;;;;;;;7.30;1.30;;;21.90;99.90;;;;;;5033906;28;20634;-86
2022/01/24 09:29:34;;;;;;;6.55;1.20;;;21.90;99.90;;;;;;5033339;28;20226;-87
2022/01/24 09:32:07;;;;;;;4.75;1.40;;;21.90;99.90;;;;;;5033399;28;21580;-86
2022/01/24 09:34:38;;;;;;;6.32;1.63;;;21.80;99.90;;;;;;5032685;28;20187;-86
2022/01/24 09:37:08;;;;;;;10.70;1.70;;;21.80;99.90;;;;;;5033464;28;20642;-85
2022/01/24 09:39:39;;;;;;;6.70;1.42;;;21.80;99.90;;;;;;5034604;28;20187;-84
2022/01/24 09:42:10;;;;;;;5.68;1.55;;;21.80;99.90;;;;;;5032481;28;20241;-86
2022/01/24 09:44:41;;;;;;;7.78;1.50;;;21.80;99.90;;;;;;5032907;28;20198;-86
2022/01/24 09:47:17;;;;;;;3.95;1.20;;;21.80;99.90;;;;;;5032139;28;20659;-87
2022/01/24 09:49:49;;;;;;;7.35;1.48;;;21.70;99.90;;;;;;5032888;28;20189;-86
2022/01/24 09:52:20;;;;;;;3.92;1.02;;;21.70;99.90;;;;;;5033823;28;20217;-86
2022/01/24 09:54:51;;;;;;;6.80;1.40;;;21.70;99.90;;;;;;5031507;28;20187;-85
2022/01/24 09:57:21;;;;;;;6.60;1.20;;;21.70;99.90;;;;;;5032460;28;20198;-86
2022/01/24 09:59:52;;;;;;;9.00;1.30;;;21.70;99.90;;;;;;5033166;28;20190;-85
2022/01/24 10:02:26;;;;;;;5.57;1.27;;;21.70;99.90;;;;;;5031940;28;20570;-86
2022/01/24 10:05:15;;;;;;;5.57;1.25;;;21.80;99.90;;;;;;5026327;28;20651;-85
2022/01/24 10:07:53;;;;;;;5.82;1.40;;;21.80;99.90;;;;;;5030535;28;20197;-86
2022/01/24 10:10:31;;;;;;;4.03;1.10;;;21.80;99.90;;;;;;5031666;28;20228;-85
2022/01/24 10:16:29;;;;;;;7.97;1.20;;;21.70;99.90;;;;;;5032754;28;20189;-86
2022/01/24 10:19:11;;;;;;;4.30;1.00;;;21.80;99.90;;;;;;5032364;28;20194;-86
2022/01/24 10:21:43;;;;;;;9.18;1.38;;;21.80;99.90;;;;;;5031594;28;20190;-84
2022/01/24 10:24:31;;;;;;;7.30;1.45;;;21.70;99.90;;;;;;5032353;28;20233;-85
2022/01/24 10:27:15;;;;;;;7.43;1.20;;;21.70;99.90;;;;;;5037849;28;20230;-84
2022/01/24 10:29:52;;;;;;;6.80;1.33;;;21.70;99.90;;;;;;5028495;28;20205;-84
2022/01/24 10:32:34;;;;;;;7.18;1.38;;;21.70;99.90;;;;;;5033701;28;20214;-84
2022/01/24 10:35:31;;;;;;;8.45;1.48;;;21.70;99.90;;;;;;5034938;28;20634;-84
2022/01/24 10:38:24;;;;;;;6.03;1.10;;;21.70;99.90;;;;;;5032545;28;20198;-85
2022/01/24 10:41:11;;;;;;;5.97;1.42;;;21.70;99.90;;;;;;5034652;28;20201;-83
2022/01/24 10:43:43;;;;;;;6.55;1.40;;;21.70;99.90;;;;;;5035936;28;20241;-85
2022/01/24 10:46:14;;;;;;;7.40;1.25;;;21.70;99.90;;;;;;5033573;28;20206;-85
2022/01/24 10:48:49;;;;;;;7.07;1.50;;;21.70;99.90;;;;;;5038088;28;20273;-85
2022/01/24 10:51:25;;;;;;;12.57;1.63;;;21.70;99.90;;;;;;5032789;28;20197;-84
2022/01/24 10:53:57;;;;;;;5.63;1.15;;;21.70;99.90;;;;;;5031921;28;20249;-84
2022/01/24 10:56:33;;;;;;;12.50;1.50;;;21.70;99.90;;;;;;5040400;28;20649;-84
2022/01/24 10:59:22;;;;;;;7.10;1.35;;;21.70;99.90;;;;;;5031771;28;20193;-85
2022/01/24 11:01:55;;;;;;;5.32;1.20;;;21.70;99.90;;;;;;5033166;28;20281;-86
2022/01/24 11:04:27;;;;;;;11.10;1.70;;;21.70;99.90;;;;;;5031475;28;20182;-85
2022/01/24 11:07:01;;;;;;;12.63;1.20;;;21.70;99.90;;;;;;5031718;28;20189;-86
2022/01/24 11:09:32;;;;;;;7.95;1.17;;;21.80;99.90;;;;;;5037762;28;20559;-84
2022/01/24 11:12:08;;;;;;;10.02;1.40;;;21.60;99.90;;;;;;5032560;28;20590;-85
2022/01/24 11:14:39;;;;;;;6.25;1.20;;;21.60;99.90;;;;;;5034172;28;20190;-86
2022/01/24 11:17:12;;;;;;;7.07;1.60;;;21.70;99.90;;;;;;5031888;28;20639;-85
2022/01/24 11:19:48;;;;;;;10.18;1.45;;;21.70;99.90;;;;;;5032556;28;20265;-84
2022/01/24 11:22:24;;;;;;;8.40;1.38;;;21.70;99.90;;;;;;5032146;28;20198;-84
2022/01/24 11:24:59;;;;;;;5.45;1.13;;;21.70;99.90;;;;;;5035119;28;20317;-86
2022/01/24 11:27:31;;;;;;;7.30;1.30;;;21.70;99.90;;;;;;5027668;28;20639;-86
2022/01/24 11:30:05;;;;;;;11.23;1.45;;;21.70;99.90;;;;;;5037021;28;20186;-86
2022/01/24 11:32:40;;;;;;;6.35;1.52;;;21.70;99.90;;;;;;5040322;28;20205;-86
2022/01/24 11:35:14;;;;;;;8.10;1.80;;;21.70;99.90;;;;;;5038939;28;20600;-86
2022/01/24 11:37:48;;;;;;;4.93;1.60;;;21.70;99.90;;;;;;5037424;28;20197;-86
2022/01/24 11:40:23;;;;;;;5.38;1.60;;;21.70;99.90;;;;;;5033418;28;20190;-86
2022/01/24 11:42:53;;;;;;;6.20;1.50;;;21.70;99.90;;;;;;5033768;28;20202;-86
2022/01/24 11:45:44;;;;;;;11.15;1.60;;;21.60;99.90;;;;;;5033443;28;20191;-86
2022/01/24 11:48:20;;;;;;;7.95;1.50;;;21.60;99.90;;;;;;5033139;28;20190;-85
2022/01/24 11:51:03;;;;;;;9.00;1.45;;;21.60;99.90;;;;;;5032391;28;20193;-86
2022/01/24 11:53:41;;;;;;;7.05;1.50;;;21.50;99.90;;;;;;5025131;28;20222;-86
2022/01/24 11:56:24;;;;;;;8.95;1.40;;;21.60;99.90;;;;;;5035664;28;20186;-85
2022/01/24 11:59:15;;;;;;;7.00;1.30;;;21.60;99.90;;;;;;5030881;28;20198;-83
2022/01/24 12:01:51;;;;;;;4.40;1.10;;;21.60;99.90;;;;;;5031792;28;20203;-84
2022/01/24 12:04:52;;;;;;;6.68;1.27;;;21.50;99.90;;;;;;5032677;28;20642;-85
2022/01/24 12:07:24;;;;;;;6.32;1.05;;;21.50;99.90;;;;;;5041884;28;20201;-85
2022/01/24 12:09:58;;;;;;;7.22;1.20;;;21.60;99.90;;;;;;5035348;28;20193;-85
2022/01/24 12:12:50;;;;;;;8.98;1.15;;;21.60;99.90;;;;;;5033219;28;20210;-85
2022/01/24 12:15:58;;;;;;;9.63;1.23;;;21.60;99.90;;;;;;5042329;28;20643;-85
2022/01/24 12:18:47;;;;;;;7.35;1.20;;;21.60;99.90;;;;;;5037207;28;20213;-85
2022/01/24 12:21:19;;;;;;;9.25;1.27;;;21.60;99.90;;;;;;5037997;28;20198;-85
2022/01/24 12:23:51;;;;;;;8.63;1.30;;;21.60;99.90;;;;;;5037956;28;20226;-85
2022/01/24 12:26:38;;;;;;;7.15;1.40;;;21.60;99.90;;;;;;5036259;28;20190;-84
2022/01/24 12:29:11;;;;;;;11.18;1.52;;;21.60;99.90;;;;;;5028951;28;20220;-85
2022/01/24 12:31:49;;;;;;;6.43;1.00;;;21.70;99.90;;;;;;5036905;28;20202;-85
2022/01/24 12:34:31;;;;;;;7.63;1.25;;;21.70;99.90;;;;;;5035214;28;20264;-84
2022/01/24 12:37:16;;;;;;;8.00;1.20;;;21.70;99.90;;;;;;5038679;28;20216;-84
2022/01/24 12:39:57;;;;;;;6.40;1.33;;;21.70;99.90;;;;;;5035067;28;20236;-82
2022/01/24 12:42:52;;;;;;;7.10;1.38;;;21.80;99.90;;;;;;5035995;28;20290;-83
2022/01/24 12:48:15;;;;;;;8.60;1.40;;;21.80;99.90;;;;;;5035089;28;20200;-85
2022/01/24 12:50:47;;;;;;;8.45;1.50;;;21.90;99.90;;;;;;5033959;28;20630;-84
2022/01/24 12:53:20;;;;;;;8.88;1.35;;;21.90;99.90;;;;;;5027502;28;20217;-84
2022/01/24 12:56:01;;;;;;;12.73;1.30;;;22.00;99.90;;;;;;5034955;28;20225;-84
2022/01/24 12:58:39;;;;;;;5.97;1.10;;;21.90;99.90;;;;;;5029055;28;20191;-84
2022/01/24 13:01:23;;;;;;;7.50;1.17;;;21.90;99.90;;;;;;5038963;28;20194;-84
2022/01/24 13:03:57;;;;;;;9.75;1.73;;;22.00;99.90;;;;;;5034622;28;20247;-83
2022/01/24 13:06:30;;;;;;;6.78;1.30;;;21.90;99.90;;;;;;5027229;28;20186;-85
2022/01/24 13:09:03;;;;;;;8.40;1.27;;;22.00;99.90;;;;;;5038218;28;20186;-85
2022/01/24 13:11:34;;;;;;;10.43;1.52;;;21.90;99.90;;;;;;5029797;28;20564;-85
2022/01/24 13:14:11;;;;;;;7.72;1.17;;;21.90;99.90;;;;;;5034336;28;20214;-85
2022/01/24 13:22:34;;;;;;;6.40;1.30;;;22.00;99.90;;;;;;5034938;28;20564;-85
2022/01/24 13:25:11;;;;;;;10.55;1.48;;;22.00;99.90;;;;;;5034867;28;20218;-85
2022/01/24 13:27:43;;;;;;;7.97;1.27;;;22.00;99.90;;;;;;5038769;28;20221;-84
2022/01/24 13:30:18;;;;;;;7.65;1.38;;;22.00;99.90;;;;;;5035241;28;20252;-83
2022/01/24 13:32:53;;;;;;;7.60;1.13;;;22.00;99.90;;;;;;5033265;28;20213;-84
2022/01/24 13:35:30;;;;;;;9.13;1.20;;;21.90;99.90;;;;;;5039502;28;20198;-86
2022/01/24 13:38:02;;;;;;;9.00;1.38;;;22.00;99.90;;;;;;5026788;28;20268;-84
2022/01/24 13:40:40;;;;;;;5.30;1.10;;;22.00;99.90;;;;;;5032360;28;20213;-83
2022/01/24 13:43:12;;;;;;;7.05;1.05;;;21.90;99.90;;;;;;5037551;28;20183;-84
2022/01/24 13:45:47;;;;;;;7.60;1.20;;;22.00;99.90;;;;;;5039150;28;20190;-84
2022/01/24 13:48:22;;;;;;;8.52;1.20;;;21.90;99.90;;;;;;5041966;28;20190;-85
2022/01/24 13:50:55;;;;;;;6.88;1.10;;;22.00;99.90;;;;;;5033746;28;20208;-85
2022/01/24 13:53:46;;;;;;;12.63;1.63;;;21.90;99.90;;;;;;5034211;28;20708;-84
2022/01/24 13:56:26;;;;;;;5.78;1.17;;;21.90;99.90;;;;;;5024787;28;20221;-85
2022/01/24 13:59:18;;;;;;;6.60;1.20;;;22.00;99.90;;;;;;5032053;28;20555;-83
2022/01/24 14:01:59;;;;;;;7.18;1.27;;;22.00;99.90;;;;;;5033445;28;20190;-82
2022/01/24 14:04:34;;;;;;;9.77;1.30;;;22.00;99.90;;;;;;5039876;28;20196;-84
2022/01/24 14:07:06;;;;;;;8.23;1.20;;;22.00;99.90;;;;;;5041554;28;20251;-84
2022/01/24 14:09:45;;;;;;;6.10;1.30;;;21.90;99.90;;;;;;5033063;28;20183;-84
2022/01/24 14:12:18;;;;;;;6.80;1.40;;;21.90;99.90;;;;;;5035728;28;20277;-85
2022/01/24 14:14:57;;;;;;;5.72;1.00;;;21.90;99.90;;;;;;5038073;28;20229;-85
2022/01/24 14:17:43;;;;;;;11.45;1.65;;;21.90;99.90;;;;;;5034430;28;20201;-85
2022/01/24 14:20:18;;;;;;;8.35;1.30;;;21.90;99.90;;;;;;5038897;28;20658;-83
2022/01/24 14:22:51;;;;;;;9.90;1.48;;;21.90;99.90;;;;;;5033272;28;20201;-84
2022/01/24 14:25:25;;;;;;;6.53;1.25;;;21.90;99.90;;;;;;5033748;28;20661;-85
2022/01/24 14:27:58;;;;;;;13.20;1.30;;;21.90;99.90;;;;;;5032893;28;20264;-82
2022/01/24 14:30:34;;;;;;;6.65;1.10;;;21.90;99.90;;;;;;5033537;28;20722;-85
2022/01/24 14:33:11;;;;;;;8.68;1.00;;;21.90;99.90;;;;;;5034730;28;20232;-81